Aeroporto :
LOGIN :

Iscrizione | Disclaimer

   EN    FR    IT 

 










Sommario :    VFR   VFR Marginale   IFR   IFR Intensivo   IFR Molto Intensivo
Visibilità : 
Base nubi : 
>= 8 km
>= 3000ft
5 / 8 km
1000 / 3000 ft
1500m / 5 km
500 / 1000 ft
800 / 1500m
200 / 500 ft
< 800m
< 200 ft
Simboli :   Temporali  Nebbia  Neve Forte  Precipitazioni Forti  Vento > 20 kt
SIGMETs :   Varie  Temporali  Ghiacco  Turbolenza  Onda orograficha  Ceneri Vulcaniche






- Altitudine del aeroporto : 184 ft
- Codice IATA : BRU


EBBR - Bruxelles

ULTIMO METAR :
  • 150420Z 23021G31KT 9999 -RA SCT020TCU BKN044 10/07 Q0992 TEMPO 25028G42KT 4000 SHRA BKN012TCU

METARs OBSOLETI :
  • 150350Z 23020G30KT 9999 -RA SCT020TCU BKN030 10/08 Q0991 TEMPO 25028G42KT 4000 SHRA BKN012TCU
  • 150320Z 21019G29KT 9000 -RA SCT005 BKN016 09/08 Q0991 TEMPO 22025G36KT 4000 SHRA BKN012TCU
  • 150250Z 21020KT 9000 -RA SCT020 BKN032 09/07 Q0991 TEMPO 22025G36KT 4000 SHRA BKN012TCU
  • 150220Z 21019KT 9999 SCT017 BKN030 09/07 Q0992 TEMPO 22020G30KT
  • 150150Z 20014KT 9999 SCT016 BKN022 08/07 Q0992 NOSIG

TAF COR TAF EBBR
Valido dal 15 a 00 ore il 16 a 06 ore UTC


142349Z 1500/1606 19012KT 9999 FEW025 SCT040
BECMG 1501/1503 20015G25KT
TEMPO 1501/1505 4000 SHRA RA BKN014
PROB30
TEMPO 1502/1505 22018G45KT
BECMG 1518/1520 18010KT
TEMPO 1602/1606 3000 -DZ BKN009
PROB30
TEMPO 1604/1606 BKN006



MetMap, La meteo Aeronautica in un colpo d'occhio ! - Copyright ORBIFLY Dicembre 2007 - Disclaimer

ORBIFLY MET'MAP TEAM :

Programmazione e sviluppo : Alexandra Zaïnal
Concezione : Baudouin d'Aumeries
Aiuto per la programmazione : Marc-Olivier Méhu
Supporto tecnico e logistico : Manuel Goepfert
Aiuto per la traduzione : Arnaldo La Scala

Contatto : metmap@orbifly.com




FONTI E CREDITI :

   NOAA